Time;durP1;ratioP1;P1;durP2;ratioP2;P2;SDS_P1;SDS_P2;PMS_P1;PMS_P2;Temp;Humidity;BMP_temperature;BMP_pressure;BME280_temperature;BME280_humidity;BME280_pressure;Samples;Min_cycle;Max_cycle;Signal;HPM_P1;HPM_P2
2022/01/31 00:02:19;;;;;;;;;;;;;;;5.57;59.50;99681.91;4455304;32;20395;-82
2022/01/31 00:04:44;;;;;;;;;;;;;;;5.44;59.48;99686.41;4468861;32;32677;-83
2022/01/31 00:07:10;;;;;;;;;;;;;;;5.46;59.50;99696.69;4468969;32;28222;-82
2022/01/31 00:09:36;;;;;;;;;;;;;;;5.44;59.48;99694.13;4455196;32;20004;-82
2022/01/31 00:12:05;;;;;;;;;;;;;;;5.36;59.48;99688.19;4469443;32;20346;-82
2022/01/31 00:17:02;;;;;;;;;;;;;;;5.21;59.47;99696.13;4469357;32;19989;-83
2022/01/31 00:19:28;;;;;;;;;;;;;;;5.08;59.46;99697.97;4454611;32;20014;-82
2022/01/31 00:21:53;;;;;;;;;;;;;;;5.10;59.47;99696.22;4469206;32;20395;-82
2022/01/31 00:24:18;;;;;;;;;;;;;;;5.17;59.47;99689.25;4469321;32;20000;-82
2022/01/31 00:26:43;;;;;;;;;;;;;;;5.16;59.46;99682.41;4468450;32;30764;-81
2022/01/31 00:29:08;;;;;;;;;;;;;;;5.18;59.47;99691.81;4468632;32;21821;-82
2022/01/31 00:31:34;;;;;;;;;;;;;;;5.27;59.47;99671.97;4454788;32;20032;-83
2022/01/31 00:33:59;;;;;;;;;;;;;;;5.24;59.47;99667.69;4468073;32;32890;-83
2022/01/31 00:36:24;;;;;;;;;;;;;;;5.33;59.48;99666.72;4468552;32;27463;-84
2022/01/31 00:38:49;;;;;;;;;;;;;;;5.32;59.48;99672.75;4468625;32;27293;-82
2022/01/31 00:41:14;;;;;;;;;;;;;;;5.21;59.47;99668.59;4468428;32;27297;-82
2022/01/31 00:43:41;;;;;;;;;;;;;;;5.13;59.47;99661.78;4454217;32;25126;-82
2022/01/31 00:46:12;;;;;;;;;;;;;;;5.19;59.47;99657.41;4469079;32;19989;-82
2022/01/31 00:48:43;;;;;;;;;;;;;;;4.94;59.46;99648.25;4468849;32;20040;-82
2022/01/31 00:51:09;;;;;;;;;;;;;;;5.10;59.47;99636.88;4469107;32;19995;-82
2022/01/31 00:53:34;;;;;;;;;;;;;;;5.22;59.47;99629.03;4454466;32;19993;-83
2022/01/31 00:56:00;;;;;;;;;;;;;;;5.09;59.47;99626.59;4467928;32;20269;-82
2022/01/31 00:58:25;;;;;;;;;;;;;;;5.17;59.47;99633.34;4469032;32;19981;-82
2022/01/31 01:00:50;;;;;;;;;;;;;;;5.22;59.47;99631.59;4454387;32;20004;-83
2022/01/31 01:03:15;;;;;;;;;;;;;;;4.99;59.46;99640.47;4453803;32;26483;-83
2022/01/31 01:05:40;;;;;;;;;;;;;;;5.06;59.46;99635.22;4468377;32;24602;-83
2022/01/31 01:08:06;;;;;;;;;;;;;;;5.02;59.46;99643.03;4468825;32;20269;-83
2022/01/31 01:10:31;;;;;;;;;;;;;;;5.04;59.46;99649.87;4468925;32;20000;-83
2022/01/31 01:12:56;;;;;;;;;;;;;;;5.11;59.47;99645.47;4468727;32;19996;-82
2022/01/31 01:15:21;;;;;;;;;;;;;;;5.00;59.46;99655.09;4468363;32;24614;-82
2022/01/31 01:17:47;;;;;;;;;;;;;;;5.19;59.47;99674.63;4468720;32;20332;-83
2022/01/31 01:20:14;;;;;;;;;;;;;;;5.13;59.47;99667.81;4468940;32;20344;-82
2022/01/31 01:22:40;;;;;;;;;;;;;;;5.08;59.46;99668.75;4468904;32;20003;-82
2022/01/31 01:25:06;;;;;;;;;;;;;;;5.19;59.47;99672.87;4454464;32;20264;-83
2022/01/31 01:27:32;;;;;;;;;;;;;;;5.30;59.47;99671.94;4468843;32;19976;-83
2022/01/31 01:29:57;;;;;;;;;;;;;;;5.17;59.47;99669.47;4468759;32;20004;-82
2022/01/31 01:32:24;;;;;;;;;;;;;;;5.18;59.47;99665.16;4468658;32;20008;-83
2022/01/31 01:34:49;;;;;;;;;;;;;;;5.18;59.47;99660.88;4468973;32;19977;-82
2022/01/31 01:37:14;;;;;;;;;;;;;;;5.04;59.46;99665.34;4469437;32;19999;-82
2022/01/31 01:39:41;;;;;;;;;;;;;;;5.21;59.47;99667.75;4469147;32;20047;-83
2022/01/31 01:42:06;;;;;;;;;;;;;;;5.18;59.47;99672.91;4468922;32;20036;-82
2022/01/31 01:44:38;;;;;;;;;;;;;;;5.38;59.48;99652.03;4468944;32;19988;-82
2022/01/31 01:47:04;;;;;;;;;;;;;;;5.26;59.48;99655.63;4454766;32;20485;-83
2022/01/31 01:49:29;;;;;;;;;;;;;;;5.33;59.48;99646.94;4469134;32;19968;-82
2022/01/31 01:51:54;;;;;;;;;;;;;;;5.26;59.48;99637.56;4468264;32;29026;-83
2022/01/31 01:54:19;;;;;;;;;;;;;;;5.06;59.46;99627.47;4468297;32;31156;-82
2022/01/31 01:56:44;;;;;;;;;;;;;;;5.25;59.48;99630.69;4453624;32;32280;-82
2022/01/31 01:59:10;;;;;;;;;;;;;;;5.22;59.47;99615.25;4453700;32;22746;-82
2022/01/31 02:01:35;;;;;;;;;;;;;;;5.19;59.47;99610.97;4454302;32;19984;-82
2022/01/31 02:04:00;;;;;;;;;;;;;;;5.15;59.46;99592.97;4440581;32;29085;-82
2022/01/31 02:06:26;;;;;;;;;;;;;;;5.09;59.47;99591.31;4440536;32;22257;-82
2022/01/31 02:08:51;;;;;;;;;;;;;;;5.17;59.47;99598.97;4468043;32;23761;-82
2022/01/31 02:11:20;;;;;;;;;;;;;;;5.17;59.48;99597.22;4453440;32;28029;-82
2022/01/31 02:13:45;;;;;;;;;;;;;;;5.18;59.47;99598.94;4454108;32;19996;-82
2022/01/31 02:16:10;;;;;;;;;;;;;;;5.21;59.47;99598.06;4440262;32;34953;-82
2022/01/31 02:18:43;;;;;;;;;;;;;;;5.26;59.48;99598.88;4454094;32;20383;-82
2022/01/31 02:21:09;;;;;;;;;;;;;;;5.26;59.48;99600.59;4454107;32;20623;-82
2022/01/31 02:23:34;;;;;;;;;;;;;;;5.43;59.48;99593.44;4454159;32;19985;-82
2022/01/31 02:26:01;;;;;;;;;;;;;;;5.39;59.49;99608.12;4468524;32;19977;-82
2022/01/31 02:28:27;;;;;;;;;;;;;;;5.41;59.49;99603.81;4453884;32;20005;-82
2022/01/31 02:30:52;;;;;;;;;;;;;;;5.46;59.50;99590.84;4454092;32;20250;-82
2022/01/31 02:33:18;;;;;;;;;;;;;;;5.44;59.49;99590.00;4440961;32;19989;-82
2022/01/31 02:35:44;;;;;;;;;;;;;;;5.33;59.48;99600.47;4454209;32;20437;-82
2022/01/31 02:38:09;;;;;;;;;;;;;;;5.29;59.47;99596.25;4468429;32;20002;-82
2022/01/31 02:40:34;;;;;;;;;;;;;;;5.20;59.47;99586.00;4467785;32;22817;-83
2022/01/31 02:43:00;;;;;;;;;;;;;;;5.26;59.48;99592.84;4467605;32;26399;-83
2022/01/31 02:45:25;;;;;;;;;;;;;;;5.33;59.48;99576.41;4453453;32;25171;-83
2022/01/31 02:47:56;;;;;;;;;;;;;;;5.30;59.47;99566.13;4468293;32;20019;-83
2022/01/31 02:50:21;;;;;;;;;;;;;;;5.09;59.47;99575.84;4468319;32;19989;-83
2022/01/31 02:52:50;;;;;;;;;;;;;;;5.07;59.46;99569.84;4468256;32;19988;-83
2022/01/31 02:55:15;;;;;;;;;;;;;;;4.87;59.46;99559.78;4468173;32;20060;-83
2022/01/31 02:57:41;;;;;;;;;;;;;;;5.04;59.46;99557.00;4468193;32;19981;-82
2022/01/31 03:00:06;;;;;;;;;;;;;;;5.18;59.47;99551.63;4468018;32;20570;-81
2022/01/31 03:02:31;;;;;;;;;;;;;;;5.16;59.46;99548.22;4468023;32;20001;-82
2022/01/31 03:04:57;;;;;;;;;;;;;;;5.22;59.47;99543.00;4467669;32;20026;-82
2022/01/31 03:07:22;;;;;;;;;;;;;;;5.19;59.47;99543.03;4467879;32;20035;-82
2022/01/31 03:09:47;;;;;;;;;;;;;;;5.33;59.48;99538.53;4467849;32;20261;-82
2022/01/31 03:12:13;;;;;;;;;;;;;;;5.27;59.48;99537.78;4468122;32;19992;-82
2022/01/31 03:14:40;;;;;;;;;;;;;;;4.93;59.46;99541.63;4467920;32;19973;-82
2022/01/31 03:17:06;;;;;;;;;;;;;;;4.88;59.46;99550.31;4453970;32;19973;-82
2022/01/31 03:19:31;;;;;;;;;;;;;;;4.95;59.46;99546.78;4470264;32;20228;-83
2022/01/31 03:21:56;;;;;;;;;;;;;;;5.16;59.46;99543.06;4470185;32;20034;-82
2022/01/31 03:24:22;;;;;;;;;;;;;;;5.25;59.48;99550.72;4469807;32;20250;-81
2022/01/31 03:26:47;;;;;;;;;;;;;;;5.15;59.47;99543.94;4455187;32;25056;-81
2022/01/31 03:29:12;;;;;;;;;;;;;;;5.08;59.46;99540.59;4469597;32;23297;-81
2022/01/31 03:31:37;;;;;;;;;;;;;;;5.23;59.47;99540.41;4455006;32;30768;-81
2022/01/31 03:34:02;;;;;;;;;;;;;;;5.29;59.47;99534.31;4470056;32;20336;-82
2022/01/31 03:36:28;;;;;;;;;;;;;;;5.47;59.49;99531.47;4455652;32;19989;-82
2022/01/31 03:38:53;;;;;;;;;;;;;;;5.38;59.48;99526.41;4470054;32;20017;-82
2022/01/31 03:41:19;;;;;;;;;;;;;;;5.44;59.48;99536.66;4470049;32;20058;-82
2022/01/31 03:43:45;;;;;;;;;;;;;;;5.30;59.47;99525.69;4455859;32;19981;-82
2022/01/31 03:46:10;;;;;;;;;;;;;;;5.30;59.47;99525.69;4455365;32;20267;-82
2022/01/31 03:48:35;;;;;;;;;;;;;;;5.49;59.49;99534.03;4470070;32;20264;-81
2022/01/31 03:51:01;;;;;;;;;;;;;;;5.65;59.50;99543.22;4455564;32;20005;-82
2022/01/31 03:53:26;;;;;;;;;;;;;;;5.65;59.50;99526.88;4455742;32;19984;-83
2022/01/31 03:55:51;;;;;;;;;;;;;;;5.58;59.49;99541.59;4469443;32;26307;-83
2022/01/31 03:58:16;;;;;;;;;;;;;;;5.53;59.49;99530.50;4455716;32;20127;-81
2022/01/31 04:00:42;;;;;;;;;;;;;;;5.55;59.49;99529.59;4454541;32;32602;-83
2022/01/31 04:03:07;;;;;;;;;;;;;;;5.64;59.50;99509.66;4469885;32;19992;-83
2022/01/31 04:05:32;;;;;;;;;;;;;;;5.66;59.49;99507.91;4454676;32;33410;-83
2022/01/31 04:07:57;;;;;;;;;;;;;;;5.46;59.49;99493.62;4454785;32;30477;-83
2022/01/31 04:10:23;;;;;;;;;;;;;;;5.52;59.49;99501.25;4455427;32;20343;-82
2022/01/31 04:12:48;;;;;;;;;;;;;;;5.51;59.49;99496.13;4469579;32;20025;-83
2022/01/31 04:15:13;;;;;;;;;;;;;;;5.41;59.48;99497.97;4454376;32;30739;-83
2022/01/31 04:17:39;;;;;;;;;;;;;;;5.57;59.50;99502.91;4468835;32;27239;-82
2022/01/31 04:20:05;;;;;;;;;;;;;;;5.59;59.49;99491.69;4455164;32;20334;-82
2022/01/31 04:22:33;;;;;;;;;;;;;;;5.43;59.48;99485.03;4441465;32;19972;-83
2022/01/31 04:25:02;;;;;;;;;;;;;;;5.44;59.48;99481.59;4469527;32;20676;-82
2022/01/31 04:27:32;;;;;;;;;;;;;;;5.42;59.48;99471.28;4455139;32;20667;-82
2022/01/31 04:29:57;;;;;;;;;;;;;;;5.44;59.48;99469.56;4469411;32;19985;-82
2022/01/31 04:32:22;;;;;;;;;;;;;;;5.60;59.49;99477.03;4469546;32;20033;-82
2022/01/31 04:34:47;;;;;;;;;;;;;;;5.71;59.51;99468.25;4468825;32;28650;-82
2022/01/31 04:37:13;;;;;;;;;;;;;;;5.59;59.50;99480.50;4469455;32;20024;-82
2022/01/31 04:39:38;;;;;;;;;;;;;;;5.54;59.50;99480.59;4469524;32;20003;-82
2022/01/31 04:42:04;;;;;;;;;;;;;;;5.57;59.49;99492.59;4455303;32;20329;-82
2022/01/31 04:44:29;;;;;;;;;;;;;;;5.67;59.50;99494.97;4469334;32;19976;-82
2022/01/31 04:46:55;;;;;;;;;;;;;;;5.59;59.49;99496.84;4469329;32;20007;-82
2022/01/31 04:49:20;;;;;;;;;;;;;;;5.65;59.50;99495.88;4455319;32;20463;-82
2022/01/31 04:51:46;;;;;;;;;;;;;;;5.45;59.48;99471.25;4469501;32;19973;-81
2022/01/31 04:54:11;;;;;;;;;;;;;;;5.44;59.48;99456.66;4469502;32;20038;-82
2022/01/31 04:56:38;;;;;;;;;;;;;;;5.55;59.49;99451.31;4468727;32;29333;-83
2022/01/31 04:59:03;;;;;;;;;;;;;;;5.34;59.48;99443.91;4469358;32;19985;-83
2022/01/31 05:01:29;;;;;;;;;;;;;;;5.36;59.48;99439.56;4469435;32;20003;-81
2022/01/31 05:03:55;;;;;;;;;;;;;;;5.30;59.47;99443.09;4455075;32;20380;-83
2022/01/31 05:06:27;;;;;;;;;;;;;;;5.27;59.48;99455.19;4469377;32;19992;-82
2022/01/31 05:08:52;;;;;;;;;;;;;;;5.38;59.48;99463.62;4469447;32;19988;-82
2022/01/31 05:11:17;;;;;;;;;;;;;;;5.23;59.47;99462.16;4469472;32;19985;-83
2022/01/31 05:13:42;;;;;;;;;;;;;;;5.21;59.47;99461.31;4455203;32;20062;-83
2022/01/31 05:16:08;;;;;;;;;;;;;;;5.24;59.47;99458.69;4469317;32;20774;-83
2022/01/31 05:18:33;;;;;;;;;;;;;;;5.22;59.47;99452.69;4469129;32;22001;-83
2022/01/31 05:20:59;;;;;;;;;;;;;;;5.37;59.48;99449.84;4469386;32;19973;-83
2022/01/31 05:23:24;;;;;;;;;;;;;;;4.98;59.46;99456.50;4469353;32;19977;-83
2022/01/31 05:25:49;;;;;;;;;;;;;;;5.23;59.47;99452.69;4454615;32;25054;-83
2022/01/31 05:28:14;;;;;;;;;;;;;;;5.27;59.48;99445.72;4469309;32;20027;-83
2022/01/31 05:30:40;;;;;;;;;;;;;;;5.30;59.47;99434.50;4469009;32;20342;-83
2022/01/31 05:33:05;;;;;;;;;;;;;;;5.24;59.47;99422.56;4454739;32;20234;-83
2022/01/31 05:35:30;;;;;;;;;;;;;;;5.22;59.47;99416.56;4468916;32;19996;-82
2022/01/31 05:37:55;;;;;;;;;;;;;;;5.19;59.48;99399.37;4468980;32;19992;-83
2022/01/31 05:40:21;;;;;;;;;;;;;;;5.21;59.47;99400.25;4467565;32;30220;-82
2022/01/31 05:42:46;;;;;;;;;;;;;;;5.14;59.47;99396.03;4468960;32;19987;-82
2022/01/31 05:45:11;;;;;;;;;;;;;;;5.09;59.47;99387.53;4468277;32;26939;-82
2022/01/31 05:47:37;;;;;;;;;;;;;;;5.16;59.46;99385.69;4454570;32;20310;-82
2022/01/31 05:50:03;;;;;;;;;;;;;;;5.05;59.46;99383.28;4468679;32;20317;-82
2022/01/31 05:52:28;;;;;;;;;;;;;;;5.12;59.47;99384.88;4468820;32;19977;-82
2022/01/31 05:54:53;;;;;;;;;;;;;;;5.24;59.48;99382.13;4414307;32;1282900;-82
2022/01/31 05:57:18;;;;;;;;;;;;;;;5.17;59.47;99395.12;4467994;32;33394;-83
2022/01/31 05:59:44;;;;;;;;;;;;;;;5.39;59.49;99393.06;4454186;32;20261;-82
2022/01/31 06:02:09;;;;;;;;;;;;;;;5.03;59.46;99395.38;4468728;32;20029;-82
2022/01/31 06:04:34;;;;;;;;;;;;;;;5.26;59.48;99391.56;4468910;32;19981;-82
2022/01/31 06:07:00;;;;;;;;;;;;;;;5.14;59.47;99390.87;4468374;32;20862;-85
2022/01/31 06:09:27;;;;;;;;;;;;;;;5.16;59.47;99388.25;4453531;32;20275;-86
2022/01/31 06:11:52;;;;;;;;;;;;;;;5.12;59.47;99396.94;4440823;32;20005;-86
2022/01/31 06:14:17;;;;;;;;;;;;;;;5.15;59.46;99396.88;4439662;32;24928;-85
2022/01/31 06:16:42;;;;;;;;;;;;;;;5.30;59.48;99400.97;4441005;32;20083;-83
2022/01/31 06:19:08;;;;;;;;;;;;;;;5.00;59.46;99403.16;4467760;32;24605;-83
2022/01/31 06:21:33;;;;;;;;;;;;;;;5.02;59.46;99403.97;4461179;32;20297;-83
2022/01/31 06:23:58;;;;;;;;;;;;;;;5.24;59.48;99397.59;4439759;32;33646;-83
2022/01/31 06:26:23;;;;;;;;;;;;;;;5.16;59.46;99396.00;4467677;32;28872;-83
2022/01/31 06:28:49;;;;;;;;;;;;;;;5.15;59.46;99394.31;4456326;32;20007;-83
2022/01/31 06:31:14;;;;;;;;;;;;;;;4.93;59.45;99388.63;4437665;32;26792;-83
2022/01/31 06:33:39;;;;;;;;;;;;;;;4.98;59.46;99386.84;4452532;32;20008;-83
2022/01/31 06:36:05;;;;;;;;;;;;;;;5.00;59.46;99384.25;4452384;32;19996;-83
2022/01/31 06:38:30;;;;;;;;;;;;;;;5.19;59.47;99378.75;4438133;32;19999;-83
2022/01/31 06:40:55;;;;;;;;;;;;;;;5.26;59.48;99371.78;4452436;32;20005;-83
2022/01/31 06:43:20;;;;;;;;;;;;;;;5.43;59.48;99364.56;4451675;32;33215;-83
2022/01/31 06:45:45;;;;;;;;;;;;;;;5.21;59.47;99358.97;4451841;32;25541;-83
2022/01/31 06:48:11;;;;;;;;;;;;;;;5.19;59.47;99350.38;4438232;32;19989;-82
2022/01/31 06:50:36;;;;;;;;;;;;;;;5.17;59.47;99346.97;4437387;32;33577;-83
2022/01/31 06:53:02;;;;;;;;;;;;;;;5.05;59.46;99348.91;4452653;32;22242;-83
2022/01/31 06:55:29;;;;;;;;;;;;;;;5.11;59.47;99343.63;4440138;32;19989;-83
2022/01/31 06:57:54;;;;;;;;;;;;;;;5.12;59.47;99335.88;4440380;32;20116;-82
2022/01/31 07:00:20;;;;;;;;;;;;;;;5.18;59.48;99329.75;4454305;32;20008;-83
2022/01/31 07:02:46;;;;;;;;;;;;;;;5.38;59.48;99332.84;4440198;32;19993;-84
2022/01/31 07:05:13;;;;;;;;;;;;;;;5.36;59.48;99324.28;4440024;32;20004;-84
2022/01/31 07:07:38;;;;;;;;;;;;;;;5.45;59.48;99307.78;4440418;32;20005;-85
2022/01/31 07:10:05;;;;;;;;;;;;;;;5.39;59.49;99300.13;4440310;32;20277;-83
2022/01/31 07:12:36;;;;;;;;;;;;;;;5.47;59.49;99306.87;4439926;32;20045;-84
2022/01/31 07:15:01;;;;;;;;;;;;;;;5.33;59.48;99313.16;4454266;32;19991;-84
2022/01/31 07:17:26;;;;;;;;;;;;;;;5.46;59.49;99315.50;4454367;32;19985;-84
2022/01/31 07:19:53;;;;;;;;;;;;;;;5.57;59.50;99320.47;4454277;32;19984;-84
2022/01/31 07:22:19;;;;;;;;;;;;;;;5.65;59.50;99320.31;4440063;32;19997;-84
2022/01/31 07:24:48;;;;;;;;;;;;;;;5.73;59.51;99313.28;4440302;32;19985;-84
2022/01/31 07:27:13;;;;;;;;;;;;;;;5.83;59.52;99313.06;4454379;32;20049;-84
2022/01/31 07:29:39;;;;;;;;;;;;;;;6.00;59.52;99322.25;4426824;32;20323;-83
2022/01/31 07:32:04;;;;;;;;;;;;;;;6.06;59.53;99319.53;4440073;32;20044;-85
2022/01/31 07:34:29;;;;;;;;;;;;;;;6.19;59.53;99309.81;4439919;32;20012;-84
2022/01/31 07:36:55;;;;;;;;;;;;;;;6.24;59.53;99301.06;4453782;32;24974;-84
2022/01/31 07:39:20;;;;;;;;;;;;;;;6.30;59.53;99300.06;4454278;32;19999;-84
2022/01/31 07:41:46;;;;;;;;;;;;;;;6.42;59.54;99292.91;4453597;32;27276;-84
2022/01/31 07:44:11;;;;;;;;;;;;;;;6.50;59.54;99291.87;4440103;32;20322;-84
2022/01/31 07:46:36;;;;;;;;;;;;;;;6.80;59.56;99287.72;4427205;32;20331;-84
2022/01/31 07:49:02;;;;;;;;;;;;;;;6.74;59.56;99283.53;4454067;32;19985;-84
2022/01/31 07:51:27;;;;;;;;;;;;;;;6.98;59.57;99274.34;4454175;32;20282;-84
2022/01/31 07:53:52;;;;;;;;;;;;;;;7.07;59.57;99282.69;4426917;32;19989;-85
2022/01/31 07:56:18;;;;;;;;;;;;;;;7.13;59.58;99280.88;4454076;32;20008;-84
2022/01/31 07:58:43;;;;;;;;;;;;;;;7.07;59.58;99290.47;4454037;32;19992;-84
2022/01/31 08:01:09;;;;;;;;;;;;;;;7.13;59.58;99292.06;4439423;32;20024;-84
2022/01/31 08:03:34;;;;;;;;;;;;;;;7.13;59.59;99286.06;4453871;32;19993;-85
2022/01/31 08:05:59;;;;;;;;;;;;;;;7.20;59.59;99288.44;4454082;32;20326;-84
2022/01/31 08:08:27;;;;;;;;;;;;;;;7.45;59.60;99286.03;4439296;32;24591;-85
2022/01/31 08:10:53;;;;;;;;;;;;;;;7.47;59.61;99276.50;4427283;32;20009;-85
2022/01/31 08:13:18;;;;;;;;;;;;;;;7.56;59.61;99272.78;4453992;32;20003;-84
2022/01/31 08:16:01;;;;;;;;;;;;;;;7.61;59.60;99270.94;4453526;32;20363;-84
2022/01/31 08:18:28;;;;;;;;;;;;;;;7.68;59.61;99265.56;4442060;32;19996;-85
2022/01/31 08:20:53;;;;;;;;;;;;;;;7.86;59.63;99250.38;4454032;32;20001;-84
2022/01/31 08:23:18;;;;;;;;;;;;;;;7.93;59.63;99244.13;4439368;32;22673;-84
2022/01/31 08:25:48;;;;;;;;;;;;;;;7.96;59.63;99244.03;4439801;32;19981;-84
2022/01/31 08:28:14;;;;;;;;;;;;;;;7.95;59.63;99237.16;4439770;32;19990;-84
2022/01/31 08:31:07;;;;;;;;;;;;;;;7.94;59.63;99240.63;4452809;32;20026;-84
2022/01/31 08:33:32;;;;;;;;;;;;;;;8.08;59.64;99240.22;4441675;32;19995;-84
2022/01/31 08:35:58;;;;;;;;;;;;;;;8.23;59.65;99242.34;4453751;32;20024;-85
2022/01/31 08:38:23;;;;;;;;;;;;;;;8.10;59.63;99246.22;4439659;32;19987;-84
2022/01/31 08:40:49;;;;;;;;;;;;;;;8.26;59.64;99253.47;4452932;32;29515;-85
2022/01/31 08:43:16;;;;;;;;;;;;;;;8.27;59.65;99247.37;4453638;32;20588;-84
2022/01/31 08:45:41;;;;;;;;;;;;;;;8.32;59.65;99237.75;4453974;32;20354;-84
2022/01/31 08:48:06;;;;;;;;;;;;;;;8.37;59.65;99239.37;4438861;32;30623;-85
2022/01/31 08:50:31;;;;;;;;;;;;;;;8.39;59.66;99242.75;4425943;32;27936;-85
2022/01/31 08:52:57;;;;;;;;;;;;;;;8.55;59.66;99234.47;4439157;32;20029;-84
2022/01/31 08:55:22;;;;;;;;;;;;;;;8.59;59.67;99228.28;4439239;32;20515;-84
2022/01/31 08:57:52;;;;;;;;;;;;;;;8.66;59.68;99234.09;4453072;32;22485;-85
2022/01/31 09:00:17;;;;;;;;;;;;;;;8.65;59.67;99236.75;4453367;32;20003;-84
2022/01/31 09:02:52;;;;;;;;;;;;;;;8.58;59.66;99226.56;4453409;32;20683;-83
2022/01/31 09:05:17;;;;;;;;;;;;;;;8.72;59.67;99223.50;4452144;32;20278;-83
2022/01/31 09:07:42;;;;;;;;;;;;;;;8.68;59.67;99216.72;4437488;32;26392;-84
2022/01/31 09:10:08;;;;;;;;;;;;;;;8.76;59.67;99222.53;4438771;32;20001;-82
2022/01/31 09:12:35;;;;;;;;;;;;;;;8.83;59.68;99223.19;4453178;32;20388;-83
2022/01/31 09:15:00;;;;;;;;;;;;;;;8.67;59.67;99221.97;4438386;32;19977;-82
2022/01/31 09:17:25;;;;;;;;;;;;;;;8.74;59.67;99210.47;4438486;32;20041;-83
2022/01/31 09:19:50;;;;;;;;;;;;;;;8.72;59.67;99202.75;4426345;32;20036;-83
2022/01/31 09:22:16;;;;;;;;;;;;;;;8.82;59.68;99204.16;4439160;32;19977;-82
2022/01/31 09:24:42;;;;;;;;;;;;;;;8.98;59.69;99214.00;4439146;32;19982;-82
2022/01/31 09:27:08;;;;;;;;;;;;;;;8.99;59.69;99210.50;4438685;32;19980;-83
2022/01/31 09:29:33;;;;;;;;;;;;;;;9.08;59.69;99200.69;4452678;32;20299;-83
2022/01/31 09:32:05;;;;;;;;;;;;;;;9.23;59.70;99200.16;4438691;32;20000;-84
2022/01/31 09:34:30;;;;;;;;;;;;;;;9.32;59.70;99193.78;4439469;32;19977;-82
2022/01/31 09:36:56;;;;;;;;;;;;;;;9.13;59.70;99178.00;4452506;32;19982;-83
2022/01/31 09:39:21;;;;;;;;;;;;;;;9.14;59.70;99178.84;4438397;32;20347;-85
2022/01/31 09:41:53;;;;;;;;;;;;;;;9.12;59.70;99160.72;4452879;32;20027;-83
2022/01/31 09:44:37;;;;;;;;;;;;;;;9.17;59.70;99161.41;4452915;32;20381;-83
2022/01/31 09:47:07;;;;;;;;;;;;;;;8.75;59.68;99149.91;4441036;32;19981;-84
2022/01/31 09:49:32;;;;;;;;;;;;;;;8.98;59.69;99142.16;4439379;32;19989;-81
2022/01/31 09:51:57;;;;;;;;;;;;;;;9.05;59.69;99138.47;4452845;32;22884;-81
2022/01/31 09:54:24;;;;;;;;;;;;;;;9.03;59.69;99127.31;4439009;32;19985;-82
2022/01/31 09:56:50;;;;;;;;;;;;;;;9.00;59.69;99113.59;4452969;32;19985;-82
2022/01/31 09:59:16;;;;;;;;;;;;;;;9.08;59.69;99120.19;4438782;32;20030;-83
2022/01/31 10:01:50;;;;;;;;;;;;;;;9.19;59.70;99117.19;4453283;32;19981;-82
2022/01/31 10:04:19;;;;;;;;;;;;;;;9.10;59.69;99105.41;4439241;32;19996;-82
2022/01/31 10:06:45;;;;;;;;;;;;;;;9.00;59.69;99098.88;4438529;32;19977;-83
2022/01/31 10:09:18;;;;;;;;;;;;;;;9.00;59.69;99091.06;4453189;32;19982;-83
2022/01/31 10:12:07;;;;;;;;;;;;;;;8.89;59.69;99101.81;4453104;32;19985;-84
2022/01/31 10:17:23;;;;;;;;;;;;;;;8.96;59.69;99094.66;4440719;32;20333;-84
2022/01/31 10:19:48;;;;;;;;;;;;;;;9.22;59.70;99089.34;4452742;32;19995;-83
2022/01/31 10:22:14;;;;;;;;;;;;;;;9.23;59.71;99092.84;4438566;32;20012;-84
2022/01/31 10:24:40;;;;;;;;;;;;;;;9.30;59.71;99077.88;4452975;32;20006;-84
2022/01/31 10:27:09;;;;;;;;;;;;;;;9.34;59.72;99071.66;4425689;32;19986;-84
2022/01/31 10:29:35;;;;;;;;;;;;;;;9.32;59.70;99056.13;4452796;32;20008;-84
2022/01/31 10:32:03;;;;;;;;;;;;;;;9.35;59.71;99047.38;4452950;32;19993;-83
2022/01/31 10:34:30;;;;;;;;;;;;;;;9.11;59.69;99049.97;4438553;32;19996;-84
2022/01/31 10:37:00;;;;;;;;;;;;;;;8.95;59.68;99045.41;4452895;32;19977;-84
2022/01/31 10:45:20;;;;;;;;;;;;;;;8.92;59.68;99047.22;4452764;32;19996;-84
2022/01/31 10:53:20;;;;;;;;;;;;;;;9.07;59.69;99011.22;4423130;32;20497;-84
2022/01/31 10:55:53;;;;;;;;;;;;;;;9.04;59.69;99011.34;4425663;32;19992;-84
2022/01/31 10:58:19;;;;;;;;;;;;;;;9.04;59.70;98999.19;4438664;32;20059;-84
2022/01/31 11:00:44;;;;;;;;;;;;;;;9.18;59.69;98998.66;4452529;32;20258;-84
2022/01/31 11:03:29;;;;;;;;;;;;;;;9.24;59.69;98998.44;4452473;32;19981;-84
2022/01/31 11:05:55;;;;;;;;;;;;;;;9.25;59.70;98994.94;4436966;32;20025;-83
2022/01/31 11:08:20;;;;;;;;;;;;;;;9.32;59.70;98996.38;4452491;32;19981;-82
2022/01/31 11:10:46;;;;;;;;;;;;;;;9.30;59.71;98987.81;4452153;32;19985;-84
2022/01/31 11:13:11;;;;;;;;;;;;;;;9.32;59.70;98980.81;4452407;32;19981;-83
2022/01/31 11:15:36;;;;;;;;;;;;;;;9.25;59.70;98973.31;4437264;32;28983;-83
2022/01/31 11:18:01;;;;;;;;;;;;;;;9.26;59.71;98965.47;4452365;32;20260;-83
2022/01/31 11:20:27;;;;;;;;;;;;;;;9.15;59.70;98955.50;4437345;32;24605;-83
2022/01/31 11:22:57;;;;;;;;;;;;;;;8.98;59.69;98933.66;4424388;32;27885;-84
2022/01/31 11:25:23;;;;;;;;;;;;;;;8.96;59.69;98928.53;4438682;32;19976;-83
2022/01/31 11:27:49;;;;;;;;;;;;;;;9.01;59.69;98921.44;4424878;32;20037;-83
2022/01/31 11:30:15;;;;;;;;;;;;;;;9.01;59.69;98903.28;4437941;32;19990;-84
2022/01/31 11:32:41;;;;;;;;;;;;;;;9.21;59.70;98892.06;4451491;32;20031;-83
2022/01/31 11:35:07;;;;;;;;;;;;;;;9.29;59.71;98881.41;4438052;32;19985;-83
2022/01/31 11:37:32;;;;;;;;;;;;;;;9.26;59.70;98884.12;4451137;32;19981;-82
2022/01/31 11:40:01;;;;;;;;;;;;;;;9.37;59.71;98892.31;4453696;32;19977;-83
2022/01/31 11:42:26;;;;;;;;;;;;;;;9.48;59.72;98890.13;4439885;32;19988;-85
2022/01/31 11:44:51;;;;;;;;;;;;;;;9.51;59.72;98883.06;4454285;32;20320;-83
2022/01/31 11:47:19;;;;;;;;;;;;;;;9.52;59.72;98883.91;4454322;32;19980;-84
2022/01/31 11:49:48;;;;;;;;;;;;;;;9.56;59.73;98877.66;4439995;32;20002;-84
2022/01/31 11:52:13;;;;;;;;;;;;;;;9.50;59.71;98847.59;4454164;32;19977;-84
2022/01/31 11:54:45;;;;;;;;;;;;;;;9.59;59.72;98829.94;4454040;32;20005;-84
2022/01/31 11:57:11;;;;;;;;;;;;;;;9.58;59.72;98826.47;4440053;32;20037;-84
2022/01/31 11:59:36;;;;;;;;;;;;;;;9.83;59.73;98847.06;4437295;32;20369;-82
2022/01/31 12:02:02;;;;;;;;;;;;;;;9.89;59.74;98849.38;4453243;32;27666;-84
2022/01/31 12:04:31;;;;;;;;;;;;;;;9.93;59.74;98856.13;4439232;32;26207;-83
2022/01/31 12:06:56;;;;;;;;;;;;;;;10.01;59.75;98842.81;4439801;32;19984;-84
2022/01/31 12:09:24;;;;;;;;;;;;;;;9.99;59.75;98837.69;4453036;32;29993;-84
2022/01/31 12:11:57;;;;;;;;;;;;;;;9.88;59.74;98865.06;4440092;32;20004;-85
2022/01/31 12:14:26;;;;;;;;;;;;;;;9.96;59.75;98871.63;4453704;32;20024;-82
2022/01/31 12:17:09;;;;;;;;;;;;;;;10.03;59.75;98862.62;4453912;32;20015;-83
2022/01/31 12:22:08;;;;;;;;;;;;;;;10.10;59.75;98865.81;4453903;32;19993;-84
2022/01/31 12:24:45;;;;;;;;;;;;;;;10.24;59.76;98863.47;4453797;32;19981;-84
2022/01/31 12:27:11;;;;;;;;;;;;;;;10.21;59.76;98861.03;4439579;32;20075;-84
2022/01/31 12:29:40;;;;;;;;;;;;;;;10.30;59.76;98850.19;4439209;32;20012;-83
2022/01/31 12:32:15;;;;;;;;;;;;;;;10.38;59.76;98842.87;4426754;32;20391;-84
2022/01/31 12:34:41;;;;;;;;;;;;;;;10.39;59.76;98835.91;4439800;32;20320;-85
2022/01/31 12:37:25;;;;;;;;;;;;;;;10.29;59.76;98824.25;4439482;32;20004;-85
2022/01/31 12:40:17;;;;;;;;;;;;;;;10.30;59.76;98810.34;4453834;32;20046;-85
2022/01/31 12:42:50;;;;;;;;;;;;;;;10.54;59.77;98805.75;4410166;32;19997;-85
2022/01/31 12:45:15;;;;;;;;;;;;;;;10.56;59.78;98801.31;4453830;32;19985;-85
2022/01/31 12:50:35;;;;;;;;;;;;;;;10.69;59.79;98808.50;4438355;32;20057;-85
2022/01/31 12:53:05;;;;;;;;;;;;;;;10.68;59.79;98788.59;4426736;32;20659;-84
2022/01/31 12:55:30;;;;;;;;;;;;;;;10.69;59.79;98789.44;4437720;32;19981;-82
2022/01/31 12:57:56;;;;;;;;;;;;;;;10.44;59.77;98792.34;4453612;32;19977;-84
2022/01/31 13:00:31;;;;;;;;;;;;;;;10.32;59.77;98795.50;4438733;32;25584;-85
2022/01/31 13:02:56;;;;;;;;;;;;;;;10.60;59.78;98785.47;4426819;32;20338;-85
2022/01/31 13:05:31;;;;;;;;;;;;;;;10.73;59.78;98776.19;4438331;32;33038;-84
2022/01/31 13:07:56;;;;;;;;;;;;;;;10.88;59.79;98768.53;4439553;32;20005;-86
2022/01/31 13:10:21;;;;;;;;;;;;;;;10.87;59.80;98770.28;4438664;32;30033;-86
2022/01/31 13:12:57;;;;;;;;;;;;;;;10.70;59.79;98768.53;4425822;32;32501;-84
2022/01/31 13:15:22;;;;;;;;;;;;;;;10.67;59.78;98765.22;4439115;32;19989;-85